createdAt,value
2019-05-16T00:01:19.628Z,0.30
2019-05-16T00:03:53.460Z,0.40
2019-05-16T00:06:28.433Z,0.30
2019-05-16T00:09:02.104Z,0.47
2019-05-16T00:11:38.253Z,0.33
2019-05-16T00:14:11.300Z,0.30
2019-05-16T00:16:48.234Z,0.40
2019-05-16T00:19:21.218Z,0.60
2019-05-16T00:21:55.152Z,0.40
2019-05-16T00:24:29.138Z,0.37
2019-05-16T00:27:02.873Z,0.37
2019-05-16T00:29:38.354Z,0.23
2019-05-16T00:32:11.806Z,0.40
2019-05-16T00:34:47.811Z,0.50
2019-05-16T00:37:23.105Z,0.30
2019-05-16T00:39:58.920Z,0.40
2019-05-16T00:42:32.590Z,0.40
2019-05-16T00:45:09.920Z,0.40
2019-05-16T00:47:43.571Z,0.50
2019-05-16T00:50:18.550Z,0.40
2019-05-16T00:52:52.292Z,0.50
2019-05-16T00:55:28.268Z,0.30
2019-05-16T00:58:02.435Z,0.40
2019-05-16T01:00:42.263Z,0.30
2019-05-16T01:03:16.294Z,0.40
2019-05-16T01:05:50.082Z,0.40
2019-05-16T01:08:27.888Z,0.30
2019-05-16T01:11:01.017Z,0.30
2019-05-16T01:13:34.688Z,0.30
2019-05-16T01:16:08.775Z,0.50
2019-05-16T01:18:42.469Z,0.40
2019-05-16T01:21:18.379Z,0.40
2019-05-16T01:23:51.556Z,0.33
2019-05-16T01:26:28.510Z,0.50
2019-05-16T01:29:01.990Z,0.30
2019-05-16T01:31:37.851Z,0.57
2019-05-16T01:34:10.972Z,0.30
2019-05-16T01:36:44.579Z,0.50
2019-05-16T01:39:18.595Z,0.50
2019-05-16T01:41:52.268Z,0.30
2019-05-16T01:44:25.953Z,0.30
2019-05-16T01:47:00.471Z,0.50
2019-05-16T01:49:34.108Z,0.53
2019-05-16T01:52:08.503Z,0.40
2019-05-16T01:54:43.415Z,0.37
2019-05-16T01:57:18.151Z,0.77
2019-05-16T01:59:55.077Z,0.53
2019-05-16T02:02:29.051Z,0.50
2019-05-16T02:05:02.841Z,0.40
2019-05-16T02:07:38.795Z,0.40
2019-05-16T02:10:12.883Z,0.70
2019-05-16T02:12:48.806Z,0.70
2019-05-16T02:15:21.977Z,0.30
2019-05-16T02:17:55.654Z,0.60
2019-05-16T02:20:29.308Z,0.30
2019-05-16T02:23:03.031Z,0.47
2019-05-16T02:25:38.144Z,0.47
2019-05-16T02:28:11.882Z,0.50
2019-05-16T02:30:45.588Z,0.30
2019-05-16T02:33:21.321Z,0.60
2019-05-16T02:35:55.712Z,0.40
2019-05-16T02:38:31.709Z,0.40
2019-05-16T02:41:05.061Z,0.30
2019-05-16T02:43:41.737Z,0.47
2019-05-16T02:46:14.244Z,0.33
2019-05-16T02:48:51.562Z,0.40
2019-05-16T02:51:23.337Z,0.47
2019-05-16T02:53:56.927Z,0.90
2019-05-16T02:56:31.755Z,0.50
2019-05-16T02:59:05.565Z,0.50
2019-05-16T03:01:40.881Z,0.60
2019-05-16T03:04:14.821Z,0.33
2019-05-16T03:06:51.280Z,0.40
2019-05-16T03:09:24.052Z,0.63
2019-05-16T03:12:01.272Z,0.50
2019-05-16T03:14:35.458Z,0.50
2019-05-16T03:17:11.449Z,0.50
2019-05-16T03:19:46.709Z,0.60
2019-05-16T03:22:22.190Z,0.53
2019-05-16T03:24:55.801Z,0.60
2019-05-16T03:27:30.600Z,0.50
2019-05-16T03:30:06.974Z,0.40
2019-05-16T03:32:45.270Z,0.60
2019-05-16T03:35:16.831Z,0.77
2019-05-16T03:37:59.374Z,0.57
2019-05-16T03:40:31.071Z,0.50
2019-05-16T03:43:03.152Z,0.73
2019-05-16T03:45:36.851Z,0.50
2019-05-16T03:48:11.971Z,0.73
2019-05-16T03:50:45.796Z,0.87
2019-05-16T03:53:21.164Z,0.60
2019-05-16T03:55:54.842Z,0.70
2019-05-16T03:58:30.973Z,0.57
2019-05-16T04:01:03.799Z,0.60
2019-05-16T04:03:40.972Z,0.40
2019-05-16T04:06:12.702Z,0.50
2019-05-16T04:08:46.328Z,0.70
2019-05-16T04:11:23.178Z,0.53
2019-05-16T04:13:55.378Z,0.60
2019-05-16T04:16:31.335Z,0.70
2019-05-16T04:19:05.544Z,0.60
2019-05-16T04:21:42.194Z,0.40
2019-05-16T04:24:14.466Z,0.47
2019-05-16T04:26:51.350Z,0.50
2019-05-16T04:29:23.312Z,0.73
2019-05-16T04:31:56.976Z,0.60
2019-05-16T04:34:31.293Z,0.70
2019-05-16T04:37:05.045Z,0.40
2019-05-16T04:39:41.446Z,0.70
2019-05-16T04:42:13.870Z,0.70
2019-05-16T04:44:47.518Z,0.50
2019-05-16T04:47:21.231Z,0.50
2019-05-16T04:50:01.559Z,0.40
2019-05-16T04:52:33.501Z,0.70
2019-05-16T04:55:11.737Z,0.50
2019-05-16T04:57:44.015Z,0.60
2019-05-16T05:00:20.893Z,0.70
2019-05-16T05:02:53.331Z,0.70
2019-05-16T05:05:27.538Z,0.77
2019-05-16T05:08:01.583Z,0.60
2019-05-16T05:10:35.386Z,0.40
2019-05-16T05:13:11.000Z,0.70
2019-05-16T05:15:44.218Z,0.57
2019-05-16T05:18:20.806Z,0.63
2019-05-16T05:20:53.372Z,0.93
2019-05-16T05:23:30.145Z,0.70
2019-05-16T05:26:03.992Z,0.70
2019-05-16T05:28:40.283Z,0.70
2019-05-16T05:31:14.317Z,0.60
2019-05-16T05:33:50.549Z,0.60
2019-05-16T05:36:23.492Z,0.70
2019-05-16T05:39:10.923Z,0.53
2019-05-16T05:41:32.431Z,0.70
2019-05-16T05:44:07.564Z,0.83
2019-05-16T05:46:41.176Z,0.70
2019-05-16T05:49:15.062Z,0.70
2019-05-16T05:51:50.047Z,0.87
2019-05-16T05:54:24.959Z,0.90
2019-05-16T05:57:00.532Z,0.93
2019-05-16T05:59:34.125Z,0.87
2019-05-16T06:02:07.872Z,0.80
2019-05-16T06:04:42.874Z,1.03
2019-05-16T06:07:16.527Z,0.50
2019-05-16T06:09:56.461Z,1.10
2019-05-16T06:12:30.083Z,0.80
2019-05-16T06:15:08.819Z,1.03
2019-05-16T06:17:40.258Z,0.77
2019-05-16T06:20:14.937Z,0.80
2019-05-16T06:22:50.856Z,0.70
2019-05-16T06:25:24.116Z,0.60
2019-05-16T06:28:00.167Z,0.90
2019-05-16T06:30:33.462Z,0.73
2019-05-16T06:33:07.119Z,0.80
2019-05-16T06:35:44.570Z,0.70
2019-05-16T06:38:20.648Z,0.80
2019-05-16T06:40:53.787Z,1.07
2019-05-16T06:43:30.126Z,1.03
2019-05-16T06:46:04.342Z,0.80
2019-05-16T06:48:39.862Z,0.77
2019-05-16T06:51:13.288Z,0.80
2019-05-16T06:53:46.867Z,0.80
2019-05-16T06:58:53.262Z,0.70
2019-05-16T07:01:26.951Z,0.80
2019-05-16T07:04:00.675Z,0.90
2019-05-16T07:06:51.717Z,1.00
2019-05-16T07:09:10.512Z,0.93
2019-05-16T07:11:44.329Z,0.77
2019-05-16T07:14:22.527Z,0.80
2019-05-16T07:16:53.391Z,0.93
2019-05-16T07:19:27.079Z,0.73
2019-05-16T07:22:00.732Z,1.10
2019-05-16T07:24:35.562Z,1.23
2019-05-16T07:27:12.219Z,0.80
2019-05-16T07:29:44.412Z,1.00
2019-05-16T07:32:19.845Z,1.57
2019-05-16T07:34:53.391Z,0.70
2019-05-16T07:37:27.095Z,0.80
2019-05-16T07:40:15.590Z,0.80
2019-05-16T07:42:36.225Z,1.23
2019-05-16T07:47:43.005Z,0.67
2019-05-16T07:50:16.754Z,1.40
2019-05-16T07:52:51.251Z,0.80
2019-05-16T07:55:24.922Z,0.90
2019-05-16T07:57:59.630Z,0.77
2019-05-16T08:00:49.525Z,0.70
2019-05-16T08:03:10.492Z,0.70
2019-05-16T08:05:44.244Z,0.90
2019-05-16T08:08:23.280Z,1.17
2019-05-16T08:10:53.154Z,0.90
2019-05-16T08:13:30.619Z,0.70
2019-05-16T08:16:03.362Z,1.20
2019-05-16T08:18:36.982Z,0.90
2019-05-16T08:21:14.197Z,1.13
2019-05-16T08:23:46.188Z,1.10
2019-05-16T08:26:21.926Z,1.20
2019-05-16T08:28:55.172Z,1.37
2019-05-16T08:31:31.842Z,1.13
2019-05-16T08:34:04.236Z,1.20
2019-05-16T08:36:40.863Z,1.23
2019-05-16T08:39:13.192Z,0.90
2019-05-16T08:41:46.949Z,1.00
2019-05-16T08:44:21.482Z,1.00
2019-05-16T08:46:58.129Z,1.00
2019-05-16T08:49:30.867Z,1.10
2019-05-16T08:52:05.823Z,1.00
2019-05-16T08:57:27.006Z,1.33
2019-05-16T08:59:53.236Z,1.40
2019-05-16T09:02:33.534Z,1.20
2019-05-16T09:05:05.242Z,1.17
2019-05-16T09:07:35.934Z,1.23
2019-05-16T09:10:30.563Z,1.33
2019-05-16T09:10:42.723Z,1.50
2019-05-16T09:12:47.715Z,2.23
2019-05-16T09:15:21.045Z,1.70
2019-05-16T09:17:58.165Z,1.93
2019-05-16T09:20:31.033Z,1.43
2019-05-16T09:23:07.218Z,1.30
2019-05-16T09:25:40.487Z,1.40
2019-05-16T09:28:16.651Z,1.33
2019-05-16T09:30:49.522Z,1.27
2019-05-16T09:33:23.450Z,1.20
2019-05-16T09:35:57.766Z,1.53
2019-05-16T09:38:31.500Z,1.00
2019-05-16T09:41:07.934Z,1.37
2019-05-16T09:43:40.761Z,1.15
2019-05-16T09:46:17.162Z,1.42
2019-05-16T09:49:09.776Z,1.20
2019-05-16T09:51:27.211Z,1.17
2019-05-16T09:54:01.984Z,1.90
2019-05-16T09:56:36.946Z,1.30
2019-05-16T09:59:10.816Z,1.63
2019-05-16T10:01:47.496Z,1.65
2019-05-16T10:04:20.973Z,1.70
2019-05-16T10:06:57.268Z,1.30
2019-05-16T10:09:41.362Z,1.80
2019-05-16T10:12:15.039Z,1.50
2019-05-16T10:14:42.885Z,1.67
2019-05-16T10:17:17.788Z,1.05
2019-05-16T10:19:52.174Z,1.65
2019-05-16T10:22:27.283Z,1.40
2019-05-16T10:25:02.638Z,1.57
2019-05-16T10:27:37.162Z,1.20
2019-05-16T10:30:11.785Z,1.37
2019-05-16T10:32:47.753Z,1.65
2019-05-16T10:35:22.100Z,1.20
2019-05-16T10:37:57.663Z,1.50
2019-05-16T10:40:31.948Z,1.27
2019-05-16T10:43:07.594Z,1.22
2019-05-16T10:45:41.838Z,1.52
2019-05-16T10:48:17.743Z,1.22
2019-05-16T10:50:52.035Z,1.35
2019-05-16T10:53:52.314Z,1.00
2019-05-16T10:56:02.392Z,1.70
2019-05-16T10:58:51.683Z,1.42
2019-05-16T11:01:24.505Z,1.47
2019-05-16T11:03:49.214Z,1.52
2019-05-16T11:06:28.678Z,1.52
2019-05-16T11:08:59.451Z,1.25
2019-05-16T11:11:33.623Z,1.30
2019-05-16T11:14:09.314Z,1.80
2019-05-16T11:16:43.805Z,1.87
2019-05-16T11:19:23.604Z,1.25
2019-05-16T11:21:53.937Z,1.10
2019-05-16T11:24:29.288Z,1.45
2019-05-16T11:27:03.753Z,1.37
2019-05-16T11:29:37.986Z,1.50
2019-05-16T11:32:12.209Z,1.45
2019-05-16T11:34:47.963Z,1.82
2019-05-16T11:37:22.321Z,1.32
2019-05-16T11:39:57.165Z,1.45
2019-05-16T11:42:32.729Z,1.17
2019-05-16T11:45:09.886Z,1.65
2019-05-16T11:47:46.828Z,1.25
2019-05-16T11:50:20.099Z,1.30
2019-05-16T11:52:56.822Z,1.87
2019-05-16T11:55:34.179Z,1.60
2019-05-16T11:58:07.401Z,1.37
2019-05-16T12:00:41.654Z,1.55
2019-05-16T12:03:17.217Z,1.77
2019-05-16T12:06:11.355Z,1.45
2019-05-16T12:11:38.330Z,2.02
2019-05-16T12:14:12.655Z,1.37
2019-05-16T12:16:47.331Z,1.80
2019-05-16T12:19:21.637Z,1.20
2019-05-16T12:21:57.073Z,1.60
2019-05-16T12:24:37.186Z,1.50
2019-05-16T12:27:08.286Z,1.45
2019-05-16T12:29:42.625Z,1.42
2019-05-16T12:32:17.123Z,1.70
2019-05-16T12:34:51.333Z,1.50
2019-05-16T12:37:27.598Z,1.30
2019-05-16T12:40:01.642Z,1.77
2019-05-16T12:42:36.536Z,1.52
2019-05-16T12:45:11.341Z,1.75
2019-05-16T12:47:47.347Z,1.75
2019-05-16T12:50:22.447Z,1.82
2019-05-16T12:52:56.995Z,1.57
2019-05-16T12:55:31.278Z,2.00
2019-05-16T12:58:12.626Z,1.92
2019-05-16T13:00:44.042Z,2.00
2019-05-16T13:03:17.403Z,2.10
2019-05-16T13:05:51.705Z,1.92
2019-05-16T13:08:26.785Z,1.90
2019-05-16T13:11:01.224Z,2.02
2019-05-16T13:13:37.536Z,2.22
2019-05-16T13:16:11.469Z,2.12
2019-05-16T13:18:47.452Z,2.55
2019-05-16T13:21:22.896Z,2.12
2019-05-16T13:23:59.393Z,2.02
2019-05-16T13:26:33.631Z,2.12
2019-05-16T13:29:07.916Z,2.52
2019-05-16T13:31:42.171Z,1.92
2019-05-16T13:34:17.741Z,2.58
2019-05-16T13:36:52.277Z,1.80
2019-05-16T13:39:27.657Z,2.08
2019-05-16T13:42:01.915Z,1.87
2019-05-16T13:44:37.689Z,1.80
2019-05-16T13:47:13.030Z,2.08
2019-05-16T13:49:47.229Z,2.27
2019-05-16T13:52:22.429Z,2.37
2019-05-16T13:54:56.684Z,2.10
2019-05-16T13:57:30.891Z,2.33
2019-05-16T14:00:07.963Z,2.60
2019-05-16T14:02:44.240Z,2.30
2019-05-16T14:05:18.566Z,2.60
2019-05-16T14:07:52.772Z,2.35
2019-05-16T14:10:29.695Z,2.42
2019-05-16T14:13:04.029Z,1.98
2019-05-16T14:15:38.283Z,2.95
2019-05-16T14:18:13.871Z,2.50
2019-05-16T14:20:48.101Z,2.95
2019-05-16T14:23:22.364Z,2.55
2019-05-16T14:25:57.766Z,2.40
2019-05-16T14:28:32.101Z,2.10
2019-05-16T14:31:07.244Z,2.08
2019-05-16T14:33:41.669Z,2.40
2019-05-16T14:36:15.887Z,2.35
2019-05-16T14:38:50.310Z,2.40
2019-05-16T14:41:27.721Z,2.70
2019-05-16T14:44:01.416Z,2.52
2019-05-16T14:46:38.274Z,2.90
2019-05-16T14:49:12.687Z,2.22
2019-05-16T14:51:47.731Z,2.27
2019-05-16T14:54:22.156Z,2.27
2019-05-16T14:57:00.780Z,2.25
2019-05-16T14:59:32.193Z,2.47
2019-05-16T15:02:07.743Z,2.52
2019-05-16T15:04:42.021Z,2.40
2019-05-16T15:07:19.409Z,2.60
2019-05-16T15:09:53.268Z,2.55
2019-05-16T15:12:27.469Z,2.25
2019-05-16T15:15:15.669Z,3.25
2019-05-16T15:17:37.731Z,2.58
2019-05-16T15:20:12.930Z,2.65
2019-05-16T15:22:47.320Z,2.58
2019-05-16T15:25:22.666Z,2.87
2019-05-16T15:27:58.025Z,2.35
2019-05-16T15:30:32.717Z,2.35
2019-05-16T15:33:08.447Z,2.22
2019-05-16T15:35:43.298Z,2.47
2019-05-16T15:38:17.737Z,2.40
2019-05-16T15:40:51.939Z,2.37
2019-05-16T15:43:27.525Z,2.10
2019-05-16T15:46:02.175Z,2.20
2019-05-16T15:48:37.736Z,2.15
2019-05-16T15:51:12.412Z,2.67
2019-05-16T15:53:47.257Z,2.58
2019-05-16T15:56:21.598Z,2.50
2019-05-16T15:58:56.183Z,2.20
2019-05-16T16:01:30.555Z,2.08
2019-05-16T16:04:07.023Z,2.45
2019-05-16T16:06:43.165Z,1.90
2019-05-16T16:09:17.478Z,2.00
2019-05-16T16:11:51.805Z,2.10
2019-05-16T16:14:27.454Z,2.35
2019-05-16T16:17:01.785Z,1.77
2019-05-16T16:19:37.191Z,2.10
2019-05-16T16:22:11.555Z,2.08
2019-05-16T16:24:47.842Z,1.90
2019-05-16T16:27:22.359Z,1.65
2019-05-16T16:29:56.707Z,1.90
2019-05-16T16:32:30.979Z,1.55
2019-05-16T16:35:08.120Z,2.00
2019-05-16T16:37:41.469Z,2.08
2019-05-16T16:40:19.231Z,2.40
2019-05-16T16:42:53.648Z,2.02
2019-05-16T16:45:27.963Z,1.90
2019-05-16T16:48:02.167Z,1.70
2019-05-16T16:50:37.191Z,2.20
2019-05-16T16:53:11.455Z,1.85
2019-05-16T16:55:48.714Z,1.80
2019-05-16T16:58:22.916Z,1.75
2019-05-16T17:00:57.505Z,1.60
2019-05-16T17:03:31.937Z,1.70
2019-05-16T17:06:06.306Z,1.77
2019-05-16T17:08:40.480Z,1.80
2019-05-16T17:11:14.987Z,1.60
2019-05-16T17:13:49.207Z,1.45
2019-05-16T17:16:26.847Z,2.10
2019-05-16T17:18:59.441Z,1.60
2019-05-16T17:21:33.985Z,2.05
2019-05-16T17:24:08.260Z,2.00
2019-05-16T17:26:43.648Z,2.00
2019-05-16T17:29:17.973Z,1.57
2019-05-16T17:31:56.323Z,1.80
2019-05-16T17:34:28.068Z,1.82
2019-05-16T17:37:02.804Z,1.60
2019-05-16T17:39:37.079Z,1.98
2019-05-16T17:42:11.311Z,1.67
2019-05-16T17:44:47.292Z,1.55
2019-05-16T17:47:22.417Z,1.70
2019-05-16T17:49:56.650Z,1.30
2019-05-16T17:52:31.080Z,1.65
2019-05-16T17:55:07.410Z,1.22
2019-05-16T17:57:42.754Z,1.80
2019-05-16T18:00:25.342Z,1.90
2019-05-16T18:02:53.532Z,1.87
2019-05-16T18:05:27.764Z,1.57
2019-05-16T18:08:02.273Z,1.60
2019-05-16T18:10:36.768Z,1.70
2019-05-16T18:13:11.968Z,1.67
2019-05-16T18:15:47.323Z,1.57
2019-05-16T18:18:26.905Z,1.45
2019-05-16T18:21:02.375Z,1.75
2019-05-16T18:23:37.002Z,1.60
2019-05-16T18:26:11.279Z,2.00
2019-05-16T18:28:46.746Z,1.40
2019-05-16T18:31:20.987Z,1.60
2019-05-16T18:33:56.601Z,1.65
2019-05-16T18:36:30.808Z,1.55
2019-05-16T18:39:07.203Z,1.92
2019-05-16T18:41:41.491Z,2.08
2019-05-16T18:44:16.690Z,1.70
2019-05-16T18:47:04.049Z,1.70
2019-05-16T18:49:27.036Z,1.90
2019-05-16T18:52:01.288Z,2.12
2019-05-16T18:54:37.646Z,1.60
2019-05-16T18:57:11.488Z,1.80
2019-05-16T18:59:46.244Z,1.95
2019-05-16T19:02:20.544Z,2.22
2019-05-16T19:04:57.561Z,2.02
2019-05-16T19:07:30.704Z,2.00
2019-05-16T19:10:06.822Z,1.33
2019-05-16T19:12:41.058Z,2.15
2019-05-16T19:15:17.798Z,1.80
2019-05-16T19:17:51.491Z,1.85
2019-05-16T19:20:26.330Z,1.80
2019-05-16T19:23:00.290Z,2.40
2019-05-16T19:25:34.000Z,2.10
2019-05-16T19:28:08.546Z,2.02
2019-05-16T19:30:46.513Z,1.77
2019-05-16T19:33:20.384Z,2.08
2019-05-16T19:35:56.557Z,2.15
2019-05-16T19:38:30.270Z,2.33
2019-05-16T19:41:04.719Z,2.60
2019-05-16T19:46:12.283Z,2.35
2019-05-16T19:48:47.006Z,2.00
2019-05-16T19:51:21.221Z,1.70
2019-05-16T19:53:56.620Z,2.30
2019-05-16T19:56:30.394Z,2.30
2019-05-16T19:59:06.511Z,2.10
2019-05-16T20:01:40.454Z,2.08
2019-05-16T20:04:18.111Z,2.17
2019-05-16T20:06:50.152Z,2.23
2019-05-16T20:09:27.146Z,2.00
2019-05-16T20:12:02.047Z,1.87
2019-05-16T20:14:36.621Z,1.82
2019-05-16T20:17:10.330Z,2.03
2019-05-16T20:19:46.964Z,1.90
2019-05-16T20:22:20.886Z,2.12
2019-05-16T20:24:56.862Z,2.40
2019-05-16T20:27:30.481Z,1.93
2019-05-16T20:30:06.722Z,2.13
2019-05-16T20:32:40.544Z,2.30
2019-05-16T20:35:14.453Z,2.03
2019-05-16T20:37:48.287Z,2.07
2019-05-16T20:40:22.130Z,1.77
2019-05-16T20:42:56.458Z,2.00
2019-05-16T20:45:31.319Z,2.10
2019-05-16T20:48:12.291Z,2.40
2019-05-16T20:50:40.930Z,2.40
2019-05-16T20:53:14.640Z,2.40
2019-05-16T20:55:49.551Z,2.23
2019-05-16T20:58:23.906Z,2.57
2019-05-16T21:01:01.226Z,2.33
2019-05-16T21:03:34.205Z,2.13
2019-05-16T21:06:08.756Z,2.33
2019-05-16T21:08:43.018Z,2.00
2019-05-16T21:11:17.155Z,2.00
2019-05-16T21:13:51.175Z,1.87
2019-05-16T21:16:26.861Z,1.83
2019-05-16T21:19:00.396Z,1.97
2019-05-16T21:21:36.639Z,1.30
2019-05-16T21:24:09.747Z,1.70
2019-05-16T21:26:43.549Z,1.77
2019-05-16T21:29:19.505Z,1.70
2019-05-16T21:31:52.766Z,2.10
2019-05-16T21:34:27.251Z,1.60
2019-05-16T21:37:11.238Z,1.60
2019-05-16T21:39:37.754Z,2.10
2019-05-16T21:42:11.511Z,1.83
2019-05-16T21:44:46.640Z,1.70
2019-05-16T21:47:20.794Z,1.80
2019-05-16T21:49:56.676Z,2.50
2019-05-16T21:52:32.074Z,2.00
2019-05-16T21:55:07.566Z,2.03
2019-05-16T21:57:41.258Z,2.37
2019-05-16T22:00:21.245Z,2.30
2019-05-16T22:02:57.182Z,2.37
2019-05-16T22:05:32.437Z,2.30
2019-05-16T22:08:07.446Z,2.17
2019-05-16T22:10:41.823Z,2.50
2019-05-16T22:13:15.472Z,2.00
2019-05-16T22:15:49.461Z,2.27
2019-05-16T22:18:23.116Z,2.20
2019-05-16T22:20:58.146Z,2.20
2019-05-16T22:23:31.881Z,2.20
2019-05-16T22:26:07.690Z,2.43
2019-05-16T22:28:41.126Z,2.60
2019-05-16T22:31:16.514Z,2.23
2019-05-16T22:33:50.207Z,2.20
2019-05-16T22:36:23.834Z,2.93
2019-05-16T22:38:59.689Z,3.00
2019-05-16T22:41:33.407Z,3.27
2019-05-16T22:44:08.857Z,3.13
2019-05-16T22:46:42.922Z,3.50
2019-05-16T22:49:16.908Z,3.63
2019-05-16T22:51:51.110Z,3.40
2019-05-16T22:54:26.279Z,3.77
2019-05-16T22:57:06.684Z,3.97
2019-05-16T22:59:40.487Z,3.63
2019-05-16T23:02:16.699Z,3.43
2019-05-16T23:04:50.061Z,3.57
2019-05-16T23:07:23.947Z,4.80
2019-05-16T23:20:00.816Z,5.37
2019-05-16T23:22:36.924Z,6.07
2019-05-16T23:25:10.612Z,6.20
2019-05-16T23:37:47.835Z,6.67
2019-05-16T23:40:21.735Z,7.37
2019-05-16T23:42:56.936Z,7.30
2019-05-16T23:45:31.064Z,7.57
2019-05-16T23:48:09.516Z,8.23
2019-05-16T23:50:41.561Z,7.27
2019-05-16T23:53:16.431Z,7.87
2019-05-16T23:55:50.078Z,7.70
2019-05-16T23:58:24.084Z,7.27
